sensor_id;sensor_type;location;lat;lon;timestamp;temperature;humidity
21672;DHT22;10997;52.242;8.168;2023-11-21T00:03:22;7.00;99.90
21672;DHT22;10997;52.242;8.168;2023-11-21T00:08:23;7.20;99.90
21672;DHT22;10997;52.242;8.168;2023-11-21T00:13:24;7.20;99.90
21672;DHT22;10997;52.242;8.168;2023-11-21T00:18:25;7.20;99.90
21672;DHT22;10997;52.242;8.168;2023-11-21T00:23:25;7.20;99.90
21672;DHT22;10997;52.242;8.168;2023-11-21T00:28:26;7.20;99.90
21672;DHT22;10997;52.242;8.168;2023-11-21T00:33:26;7.30;99.90
21672;DHT22;10997;52.242;8.168;2023-11-21T00:38:27;7.40;99.90
21672;DHT22;10997;52.242;8.168;2023-11-21T00:43:28;7.40;99.90
21672;DHT22;10997;52.242;8.168;2023-11-21T00:48:29;7.50;99.90
21672;DHT22;10997;52.242;8.168;2023-11-21T00:53:29;7.50;99.90
21672;DHT22;10997;52.242;8.168;2023-11-21T00:58:30;7.60;99.90
21672;DHT22;10997;52.242;8.168;2023-11-21T01:03:30;7.60;99.90
21672;DHT22;10997;52.242;8.168;2023-11-21T01:08:31;7.70;99.90
21672;DHT22;10997;52.242;8.168;2023-11-21T01:13:31;7.70;99.90
21672;DHT22;10997;52.242;8.168;2023-11-21T01:18:32;7.70;99.90
21672;DHT22;10997;52.242;8.168;2023-11-21T01:23:33;7.70;99.90
21672;DHT22;10997;52.242;8.168;2023-11-21T01:28:34;7.70;99.90
21672;DHT22;10997;52.242;8.168;2023-11-21T01:33:34;7.70;99.90
21672;DHT22;10997;52.242;8.168;2023-11-21T01:38:35;7.70;99.90
21672;DHT22;10997;52.242;8.168;2023-11-21T01:43:35;7.70;99.90
21672;DHT22;10997;52.242;8.168;2023-11-21T01:48:37;7.70;99.90
21672;DHT22;10997;52.242;8.168;2023-11-21T01:53:39;7.70;99.90
21672;DHT22;10997;52.242;8.168;2023-11-21T01:58:40;7.70;99.90
21672;DHT22;10997;52.242;8.168;2023-11-21T02:03:41;7.70;99.90
21672;DHT22;10997;52.242;8.168;2023-11-21T02:08:42;7.80;99.90
21672;DHT22;10997;52.242;8.168;2023-11-21T02:13:44;7.70;99.90
21672;DHT22;10997;52.242;8.168;2023-11-21T02:18:47;7.70;99.90
21672;DHT22;10997;52.242;8.168;2023-11-21T02:23:48;7.70;99.90
21672;DHT22;10997;52.242;8.168;2023-11-21T02:28:49;7.80;99.90
21672;DHT22;10997;52.242;8.168;2023-11-21T02:33:50;7.80;99.90
21672;DHT22;10997;52.242;8.168;2023-11-21T02:38:50;7.80;99.90
21672;DHT22;10997;52.242;8.168;2023-11-21T02:43:51;7.80;99.90
21672;DHT22;10997;52.242;8.168;2023-11-21T02:48:51;7.80;99.90
21672;DHT22;10997;52.242;8.168;2023-11-21T02:53:54;7.80;99.90
21672;DHT22;10997;52.242;8.168;2023-11-21T02:58:59;7.80;99.90
21672;DHT22;10997;52.242;8.168;2023-11-21T03:04:00;7.80;99.90
21672;DHT22;10997;52.242;8.168;2023-11-21T03:09:02;7.80;99.90
21672;DHT22;10997;52.242;8.168;2023-11-21T03:14:02;7.80;99.90
21672;DHT22;10997;52.242;8.168;2023-11-21T03:19:04;7.80;99.90
21672;DHT22;10997;52.242;8.168;2023-11-21T03:24:05;7.80;99.90
21672;DHT22;10997;52.242;8.168;2023-11-21T03:29:07;7.80;99.90
21672;DHT22;10997;52.242;8.168;2023-11-21T03:34:14;7.80;99.90
21672;DHT22;10997;52.242;8.168;2023-11-21T03:39:15;7.80;99.90
21672;DHT22;10997;52.242;8.168;2023-11-21T03:44:16;7.80;99.90
21672;DHT22;10997;52.242;8.168;2023-11-21T03:49:16;7.80;99.90
21672;DHT22;10997;52.242;8.168;2023-11-21T03:54:17;7.80;99.90
21672;DHT22;10997;52.242;8.168;2023-11-21T03:59:17;7.80;99.90
21672;DHT22;10997;52.242;8.168;2023-11-21T04:04:18;7.80;99.90
21672;DHT22;10997;52.242;8.168;2023-11-21T04:09:18;7.70;99.90
21672;DHT22;10997;52.242;8.168;2023-11-21T04:14:20;7.70;99.90
21672;DHT22;10997;52.242;8.168;2023-11-21T04:19:20;7.70;99.90
21672;DHT22;10997;52.242;8.168;2023-11-21T04:24:21;7.70;99.90
21672;DHT22;10997;52.242;8.168;2023-11-21T04:29:22;7.70;99.90
21672;DHT22;10997;52.242;8.168;2023-11-21T04:34:23;7.70;99.90
21672;DHT22;10997;52.242;8.168;2023-11-21T04:39:23;7.70;99.90
21672;DHT22;10997;52.242;8.168;2023-11-21T04:44:24;7.70;99.90
21672;DHT22;10997;52.242;8.168;2023-11-21T04:49:25;7.70;99.90
21672;DHT22;10997;52.242;8.168;2023-11-21T04:54:25;7.70;99.90
21672;DHT22;10997;52.242;8.168;2023-11-21T04:59:26;7.70;99.90
21672;DHT22;10997;52.242;8.168;2023-11-21T05:04:27;7.70;99.90
21672;DHT22;10997;52.242;8.168;2023-11-21T05:09:28;7.70;99.90
21672;DHT22;10997;52.242;8.168;2023-11-21T05:14:32;7.70;99.90
21672;DHT22;10997;52.242;8.168;2023-11-21T05:19:32;7.60;99.90
21672;DHT22;10997;52.242;8.168;2023-11-21T05:24:33;7.70;99.90
21672;DHT22;10997;52.242;8.168;2023-11-21T05:29:33;7.60;99.90
21672;DHT22;10997;52.242;8.168;2023-11-21T05:34:34;7.60;99.90
21672;DHT22;10997;52.242;8.168;2023-11-21T05:39:35;7.70;99.90
21672;DHT22;10997;52.242;8.168;2023-11-21T05:44:37;7.70;99.90
21672;DHT22;10997;52.242;8.168;2023-11-21T05:49:38;7.70;99.90
21672;DHT22;10997;52.242;8.168;2023-11-21T05:54:38;7.70;99.90
21672;DHT22;10997;52.242;8.168;2023-11-21T05:59:39;7.70;99.90
21672;DHT22;10997;52.242;8.168;2023-11-21T06:04:39;7.70;99.90
21672;DHT22;10997;52.242;8.168;2023-11-21T06:09:40;7.70;99.90
21672;DHT22;10997;52.242;8.168;2023-11-21T06:14:40;7.70;99.90
21672;DHT22;10997;52.242;8.168;2023-11-21T06:19:41;7.70;99.90
21672;DHT22;10997;52.242;8.168;2023-11-21T06:24:42;7.70;99.90
21672;DHT22;10997;52.242;8.168;2023-11-21T06:29:42;7.70;99.90
21672;DHT22;10997;52.242;8.168;2023-11-21T06:34:43;7.70;99.90
21672;DHT22;10997;52.242;8.168;2023-11-21T06:39:44;7.70;99.90
21672;DHT22;10997;52.242;8.168;2023-11-21T06:44:45;7.70;99.90
21672;DHT22;10997;52.242;8.168;2023-11-21T06:49:46;7.70;99.90
21672;DHT22;10997;52.242;8.168;2023-11-21T06:54:50;7.80;99.90
21672;DHT22;10997;52.242;8.168;2023-11-21T06:59:51;7.80;99.90
21672;DHT22;10997;52.242;8.168;2023-11-21T07:04:51;7.70;99.90
21672;DHT22;10997;52.242;8.168;2023-11-21T07:09:58;7.80;99.90
21672;DHT22;10997;52.242;8.168;2023-11-21T07:15:03;7.80;99.90
21672;DHT22;10997;52.242;8.168;2023-11-21T07:20:06;7.80;99.90
21672;DHT22;10997;52.242;8.168;2023-11-21T07:25:07;7.80;99.90
21672;DHT22;10997;52.242;8.168;2023-11-21T07:30:10;7.80;99.90
21672;DHT22;10997;52.242;8.168;2023-11-21T07:35:11;7.70;99.90
21672;DHT22;10997;52.242;8.168;2023-11-21T07:40:12;7.70;99.90
21672;DHT22;10997;52.242;8.168;2023-11-21T07:45:12;7.70;99.90
21672;DHT22;10997;52.242;8.168;2023-11-21T07:50:13;7.70;99.90
21672;DHT22;10997;52.242;8.168;2023-11-21T07:55:14;7.80;99.90
21672;DHT22;10997;52.242;8.168;2023-11-21T08:00:14;7.80;99.90
21672;DHT22;10997;52.242;8.168;2023-11-21T08:05:15;7.80;99.90
21672;DHT22;10997;52.242;8.168;2023-11-21T08:10:16;7.80;99.90
21672;DHT22;10997;52.242;8.168;2023-11-21T08:15:17;7.80;99.90
21672;DHT22;10997;52.242;8.168;2023-11-21T08:20:18;7.80;99.90
21672;DHT22;10997;52.242;8.168;2023-11-21T08:25:19;7.90;99.90
21672;DHT22;10997;52.242;8.168;2023-11-21T08:30:20;7.90;99.90
21672;DHT22;10997;52.242;8.168;2023-11-21T08:35:24;7.90;99.90
21672;DHT22;10997;52.242;8.168;2023-11-21T08:40:25;7.90;99.90
21672;DHT22;10997;52.242;8.168;2023-11-21T08:45:26;7.90;99.90
21672;DHT22;10997;52.242;8.168;2023-11-21T08:50:26;7.90;99.90
21672;DHT22;10997;52.242;8.168;2023-11-21T08:55:27;8.00;99.90
21672;DHT22;10997;52.242;8.168;2023-11-21T09:00:28;8.00;99.90
21672;DHT22;10997;52.242;8.168;2023-11-21T09:05:29;8.00;99.90
21672;DHT22;10997;52.242;8.168;2023-11-21T09:10:30;8.00;99.90
21672;DHT22;10997;52.242;8.168;2023-11-21T09:15:31;8.00;99.90
21672;DHT22;10997;52.242;8.168;2023-11-21T09:20:31;8.00;99.90
21672;DHT22;10997;52.242;8.168;2023-11-21T09:25:32;8.00;99.90
21672;DHT22;10997;52.242;8.168;2023-11-21T09:30:33;8.10;99.90
21672;DHT22;10997;52.242;8.168;2023-11-21T09:35:34;8.10;99.90
21672;DHT22;10997;52.242;8.168;2023-11-21T09:40:34;8.10;99.90
21672;DHT22;10997;52.242;8.168;2023-11-21T09:45:35;8.00;99.90
21672;DHT22;10997;52.242;8.168;2023-11-21T09:50:41;7.90;99.90
21672;DHT22;10997;52.242;8.168;2023-11-21T09:55:44;7.90;99.90
21672;DHT22;10997;52.242;8.168;2023-11-21T10:00:47;7.90;99.90
21672;DHT22;10997;52.242;8.168;2023-11-21T10:05:49;7.90;99.90
21672;DHT22;10997;52.242;8.168;2023-11-21T10:10:53;7.90;99.90
21672;DHT22;10997;52.242;8.168;2023-11-21T10:15:54;7.90;99.90
21672;DHT22;10997;52.242;8.168;2023-11-21T10:20:56;7.90;99.90
21672;DHT22;10997;52.242;8.168;2023-11-21T10:25:57;7.90;99.90
21672;DHT22;10997;52.242;8.168;2023-11-21T10:30:59;7.90;99.90
21672;DHT22;10997;52.242;8.168;2023-11-21T10:36:00;7.90;99.90
21672;DHT22;10997;52.242;8.168;2023-11-21T10:41:01;7.80;99.90
21672;DHT22;10997;52.242;8.168;2023-11-21T10:46:05;7.90;99.90
21672;DHT22;10997;52.242;8.168;2023-11-21T10:51:09;7.80;99.90
21672;DHT22;10997;52.242;8.168;2023-11-21T10:56:12;7.80;99.90
21672;DHT22;10997;52.242;8.168;2023-11-21T11:01:19;7.70;99.90
21672;DHT22;10997;52.242;8.168;2023-11-21T11:06:22;7.70;99.90
21672;DHT22;10997;52.242;8.168;2023-11-21T11:11:26;7.60;99.90
21672;DHT22;10997;52.242;8.168;2023-11-21T11:16:27;7.60;99.90
21672;DHT22;10997;52.242;8.168;2023-11-21T11:21:42;7.50;99.90
21672;DHT22;10997;52.242;8.168;2023-11-21T11:32:33;7.40;99.90
21672;DHT22;10997;52.242;8.168;2023-11-21T11:37:26;7.40;99.90
21672;DHT22;10997;52.242;8.168;2023-11-21T11:42:27;7.30;99.90
21672;DHT22;10997;52.242;8.168;2023-11-21T11:47:32;7.40;99.90
21672;DHT22;10997;52.242;8.168;2023-11-21T11:52:40;7.30;99.90
21672;DHT22;10997;52.242;8.168;2023-11-21T11:57:42;7.40;99.90
21672;DHT22;10997;52.242;8.168;2023-11-21T12:02:49;7.40;99.90
21672;DHT22;10997;52.242;8.168;2023-11-21T12:07:52;7.30;99.90
21672;DHT22;10997;52.242;8.168;2023-11-21T12:12:58;7.20;99.90
21672;DHT22;10997;52.242;8.168;2023-11-21T12:17:59;7.20;99.90
21672;DHT22;10997;52.242;8.168;2023-11-21T12:23:00;7.20;99.90
21672;DHT22;10997;52.242;8.168;2023-11-21T12:28:02;7.20;99.90
21672;DHT22;10997;52.242;8.168;2023-11-21T12:33:03;7.20;99.90
21672;DHT22;10997;52.242;8.168;2023-11-21T12:38:05;7.20;99.90
21672;DHT22;10997;52.242;8.168;2023-11-21T12:43:07;7.30;99.90
21672;DHT22;10997;52.242;8.168;2023-11-21T12:48:08;7.50;99.90
21672;DHT22;10997;52.242;8.168;2023-11-21T12:53:12;7.60;99.90
21672;DHT22;10997;52.242;8.168;2023-11-21T12:58:13;7.60;99.90
21672;DHT22;10997;52.242;8.168;2023-11-21T13:03:15;7.50;99.90
21672;DHT22;10997;52.242;8.168;2023-11-21T13:08:26;7.60;99.90
21672;DHT22;10997;52.242;8.168;2023-11-21T13:13:29;7.60;99.90
21672;DHT22;10997;52.242;8.168;2023-11-21T13:18:30;7.60;99.90
21672;DHT22;10997;52.242;8.168;2023-11-21T13:23:34;7.50;99.90
21672;DHT22;10997;52.242;8.168;2023-11-21T13:28:37;7.50;99.90
21672;DHT22;10997;52.242;8.168;2023-11-21T13:33:38;7.40;99.90
21672;DHT22;10997;52.242;8.168;2023-11-21T13:38:39;7.40;99.90
21672;DHT22;10997;52.242;8.168;2023-11-21T13:43:42;7.40;99.90
21672;DHT22;10997;52.242;8.168;2023-11-21T13:48:49;7.40;99.90
21672;DHT22;10997;52.242;8.168;2023-11-21T13:53:56;7.40;99.90
21672;DHT22;10997;52.242;8.168;2023-11-21T13:58:56;7.30;99.90
21672;DHT22;10997;52.242;8.168;2023-11-21T14:04:01;7.40;99.90
21672;DHT22;10997;52.242;8.168;2023-11-21T14:09:28;7.40;99.90
21672;DHT22;10997;52.242;8.168;2023-11-21T14:14:44;7.40;99.90
21672;DHT22;10997;52.242;8.168;2023-11-21T14:19:45;7.40;99.90
21672;DHT22;10997;52.242;8.168;2023-11-21T14:24:47;7.50;99.90
21672;DHT22;10997;52.242;8.168;2023-11-21T14:29:50;7.40;99.90
21672;DHT22;10997;52.242;8.168;2023-11-21T14:34:51;7.30;99.90
21672;DHT22;10997;52.242;8.168;2023-11-21T14:39:51;7.20;99.90
21672;DHT22;10997;52.242;8.168;2023-11-21T14:44:52;7.20;99.90
21672;DHT22;10997;52.242;8.168;2023-11-21T14:49:53;7.10;99.90
21672;DHT22;10997;52.242;8.168;2023-11-21T14:54:53;7.10;99.90
21672;DHT22;10997;52.242;8.168;2023-11-21T15:00:15;7.10;99.90
21672;DHT22;10997;52.242;8.168;2023-11-21T15:05:35;7.10;99.90
21672;DHT22;10997;52.242;8.168;2023-11-21T15:10:36;7.00;99.90
21672;DHT22;10997;52.242;8.168;2023-11-21T15:16:00;7.00;99.90
21672;DHT22;10997;52.242;8.168;2023-11-21T15:21:07;7.00;99.90
21672;DHT22;10997;52.242;8.168;2023-11-21T15:26:11;6.90;99.90
21672;DHT22;10997;52.242;8.168;2023-11-21T15:31:12;6.90;99.90
21672;DHT22;10997;52.242;8.168;2023-11-21T15:36:16;6.80;99.90
21672;DHT22;10997;52.242;8.168;2023-11-21T15:41:17;6.80;99.90
21672;DHT22;10997;52.242;8.168;2023-11-21T15:46:18;6.80;99.90
21672;DHT22;10997;52.242;8.168;2023-11-21T15:51:19;6.70;99.90
21672;DHT22;10997;52.242;8.168;2023-11-21T15:56:20;6.70;99.90
21672;DHT22;10997;52.242;8.168;2023-11-21T16:01:21;6.70;99.90
21672;DHT22;10997;52.242;8.168;2023-11-21T16:06:22;6.70;99.90
21672;DHT22;10997;52.242;8.168;2023-11-21T16:11:22;6.70;99.90
21672;DHT22;10997;52.242;8.168;2023-11-21T16:16:23;6.70;99.90
21672;DHT22;10997;52.242;8.168;2023-11-21T16:21:24;6.70;99.90
21672;DHT22;10997;52.242;8.168;2023-11-21T16:26:25;6.60;99.90
21672;DHT22;10997;52.242;8.168;2023-11-21T16:31:25;6.60;99.90
21672;DHT22;10997;52.242;8.168;2023-11-21T16:36:26;6.60;99.90
21672;DHT22;10997;52.242;8.168;2023-11-21T16:41:27;6.70;99.90
21672;DHT22;10997;52.242;8.168;2023-11-21T16:46:28;6.70;99.90
21672;DHT22;10997;52.242;8.168;2023-11-21T16:51:29;6.70;99.90
21672;DHT22;10997;52.242;8.168;2023-11-21T16:56:30;6.60;99.90
21672;DHT22;10997;52.242;8.168;2023-11-21T17:01:31;6.60;99.90
21672;DHT22;10997;52.242;8.168;2023-11-21T17:06:32;6.60;99.90
21672;DHT22;10997;52.242;8.168;2023-11-21T17:11:33;6.60;99.90
21672;DHT22;10997;52.242;8.168;2023-11-21T17:16:33;6.60;99.90
21672;DHT22;10997;52.242;8.168;2023-11-21T17:21:34;6.60;99.90
21672;DHT22;10997;52.242;8.168;2023-11-21T17:26:35;6.50;99.90
21672;DHT22;10997;52.242;8.168;2023-11-21T17:31:36;6.60;99.90
21672;DHT22;10997;52.242;8.168;2023-11-21T17:36:37;6.50;99.90
21672;DHT22;10997;52.242;8.168;2023-11-21T17:41:41;6.50;99.90
21672;DHT22;10997;52.242;8.168;2023-11-21T17:46:42;6.50;99.90
21672;DHT22;10997;52.242;8.168;2023-11-21T17:51:42;6.50;99.90
21672;DHT22;10997;52.242;8.168;2023-11-21T17:56:43;6.50;99.90
21672;DHT22;10997;52.242;8.168;2023-11-21T18:01:45;6.40;99.90
21672;DHT22;10997;52.242;8.168;2023-11-21T18:06:45;6.40;99.90
21672;DHT22;10997;52.242;8.168;2023-11-21T18:11:46;6.40;99.90
21672;DHT22;10997;52.242;8.168;2023-11-21T18:16:46;6.40;99.90
21672;DHT22;10997;52.242;8.168;2023-11-21T18:21:47;6.40;99.90
21672;DHT22;10997;52.242;8.168;2023-11-21T18:26:48;6.30;99.90
21672;DHT22;10997;52.242;8.168;2023-11-21T18:31:50;6.40;99.90
21672;DHT22;10997;52.242;8.168;2023-11-21T18:36:50;6.40;99.90
21672;DHT22;10997;52.242;8.168;2023-11-21T18:41:52;6.40;99.90
21672;DHT22;10997;52.242;8.168;2023-11-21T18:46:53;6.40;99.90
21672;DHT22;10997;52.242;8.168;2023-11-21T18:51:54;6.40;99.90
21672;DHT22;10997;52.242;8.168;2023-11-21T18:56:55;6.30;99.90
21672;DHT22;10997;52.242;8.168;2023-11-21T19:01:56;6.30;99.90
21672;DHT22;10997;52.242;8.168;2023-11-21T19:06:56;6.30;99.90
21672;DHT22;10997;52.242;8.168;2023-11-21T19:12:00;6.20;99.90
21672;DHT22;10997;52.242;8.168;2023-11-21T19:17:00;6.20;99.90
21672;DHT22;10997;52.242;8.168;2023-11-21T19:22:01;6.20;99.90
21672;DHT22;10997;52.242;8.168;2023-11-21T19:27:02;6.20;99.90
21672;DHT22;10997;52.242;8.168;2023-11-21T19:32:03;6.10;99.90
21672;DHT22;10997;52.242;8.168;2023-11-21T19:37:04;6.10;99.90
21672;DHT22;10997;52.242;8.168;2023-11-21T19:42:06;6.10;99.90
21672;DHT22;10997;52.242;8.168;2023-11-21T19:47:06;6.10;99.90
21672;DHT22;10997;52.242;8.168;2023-11-21T19:52:07;6.00;99.90
21672;DHT22;10997;52.242;8.168;2023-11-21T19:57:07;6.00;99.90
21672;DHT22;10997;52.242;8.168;2023-11-21T20:02:12;5.90;99.90
21672;DHT22;10997;52.242;8.168;2023-11-21T20:07:13;5.80;99.90
21672;DHT22;10997;52.242;8.168;2023-11-21T20:12:15;5.80;99.90
21672;DHT22;10997;52.242;8.168;2023-11-21T20:17:16;5.70;99.90
21672;DHT22;10997;52.242;8.168;2023-11-21T20:22:16;5.70;99.90
21672;DHT22;10997;52.242;8.168;2023-11-21T20:27:18;5.70;99.90
21672;DHT22;10997;52.242;8.168;2023-11-21T20:32:18;5.60;99.90
21672;DHT22;10997;52.242;8.168;2023-11-21T20:37:24;5.60;99.90
21672;DHT22;10997;52.242;8.168;2023-11-21T20:42:24;5.60;99.90
21672;DHT22;10997;52.242;8.168;2023-11-21T20:47:25;5.60;99.90
21672;DHT22;10997;52.242;8.168;2023-11-21T20:52:26;5.60;99.90
21672;DHT22;10997;52.242;8.168;2023-11-21T20:57:26;5.60;99.90
21672;DHT22;10997;52.242;8.168;2023-11-21T21:02:28;5.60;99.90
21672;DHT22;10997;52.242;8.168;2023-11-21T21:07:29;5.60;99.90
21672;DHT22;10997;52.242;8.168;2023-11-21T21:12:30;5.60;99.90
21672;DHT22;10997;52.242;8.168;2023-11-21T21:17:30;5.60;99.90
21672;DHT22;10997;52.242;8.168;2023-11-21T21:22:31;5.60;99.90
21672;DHT22;10997;52.242;8.168;2023-11-21T21:27:32;5.60;99.90
21672;DHT22;10997;52.242;8.168;2023-11-21T21:32:33;5.60;99.90
21672;DHT22;10997;52.242;8.168;2023-11-21T21:37:34;5.60;99.90
21672;DHT22;10997;52.242;8.168;2023-11-21T21:42:35;5.60;99.90
21672;DHT22;10997;52.242;8.168;2023-11-21T21:47:35;5.60;99.90
21672;DHT22;10997;52.242;8.168;2023-11-21T21:52:36;5.60;99.90
21672;DHT22;10997;52.242;8.168;2023-11-21T21:57:43;5.60;99.90
21672;DHT22;10997;52.242;8.168;2023-11-21T22:02:44;5.50;99.90
21672;DHT22;10997;52.242;8.168;2023-11-21T22:07:44;5.50;99.90
21672;DHT22;10997;52.242;8.168;2023-11-21T22:12:45;5.50;99.90
21672;DHT22;10997;52.242;8.168;2023-11-21T22:17:46;5.50;99.90
21672;DHT22;10997;52.242;8.168;2023-11-21T22:22:46;5.50;99.90
21672;DHT22;10997;52.242;8.168;2023-11-21T22:27:47;5.50;99.90
21672;DHT22;10997;52.242;8.168;2023-11-21T22:32:47;5.50;99.90
21672;DHT22;10997;52.242;8.168;2023-11-21T22:37:48;5.40;99.90
21672;DHT22;10997;52.242;8.168;2023-11-21T22:42:49;5.40;99.90
21672;DHT22;10997;52.242;8.168;2023-11-21T22:47:49;5.50;99.90
21672;DHT22;10997;52.242;8.168;2023-11-21T22:52:50;5.40;99.90
21672;DHT22;10997;52.242;8.168;2023-11-21T22:57:53;5.40;99.90
21672;DHT22;10997;52.242;8.168;2023-11-21T23:02:54;5.40;99.90
21672;DHT22;10997;52.242;8.168;2023-11-21T23:07:55;5.30;99.90
21672;DHT22;10997;52.242;8.168;2023-11-21T23:12:56;5.10;99.90
21672;DHT22;10997;52.242;8.168;2023-11-21T23:17:57;5.10;99.90
21672;DHT22;10997;52.242;8.168;2023-11-21T23:22:57;5.00;99.90
21672;DHT22;10997;52.242;8.168;2023-11-21T23:27:58;5.00;99.90
21672;DHT22;10997;52.242;8.168;2023-11-21T23:32:59;4.80;99.90
21672;DHT22;10997;52.242;8.168;2023-11-21T23:38:00;4.70;99.90
21672;DHT22;10997;52.242;8.168;2023-11-21T23:43:00;4.60;99.90
21672;DHT22;10997;52.242;8.168;2023-11-21T23:48:01;4.40;99.90
21672;DHT22;10997;52.242;8.168;2023-11-21T23:53:03;4.30;99.90
21672;DHT22;10997;52.242;8.168;2023-11-21T23:58:03;4.20;99.90
